sensor_id;sensor_type;location;lat;lon;timestamp;P1;durP1;ratioP1;P2;durP2;ratioP2
52542;SDS011;38449;52.696;6.186;2024-01-07T00:03:05;16.55;;;10.82;;
52542;SDS011;38449;52.696;6.186;2024-01-07T00:05:35;15.85;;;11.70;;
52542;SDS011;38449;52.696;6.186;2024-01-07T00:08:02;16.27;;;10.88;;
52542;SDS011;38449;52.696;6.186;2024-01-07T00:10:29;16.52;;;10.63;;
52542;SDS011;38449;52.696;6.186;2024-01-07T00:12:55;16.40;;;11.80;;
52542;SDS011;38449;52.696;6.186;2024-01-07T00:15:21;16.83;;;11.13;;
52542;SDS011;38449;52.696;6.186;2024-01-07T00:17:48;18.30;;;11.68;;
52542;SDS011;38449;52.696;6.186;2024-01-07T00:20:14;17.17;;;12.13;;
52542;SDS011;38449;52.696;6.186;2024-01-07T00:22:40;18.23;;;11.80;;
52542;SDS011;38449;52.696;6.186;2024-01-07T00:27:33;17.35;;;10.63;;
52542;SDS011;38449;52.696;6.186;2024-01-07T00:32:25;15.52;;;10.90;;
52542;SDS011;38449;52.696;6.186;2024-01-07T00:34:52;13.57;;;10.35;;
52542;SDS011;38449;52.696;6.186;2024-01-07T00:37:19;17.08;;;12.02;;
52542;SDS011;38449;52.696;6.186;2024-01-07T00:39:48;16.30;;;11.20;;
52542;SDS011;38449;52.696;6.186;2024-01-07T00:42:18;16.58;;;11.18;;
52542;SDS011;38449;52.696;6.186;2024-01-07T00:44:45;16.35;;;10.63;;
52542;SDS011;38449;52.696;6.186;2024-01-07T00:49:37;15.77;;;10.52;;
52542;SDS011;38449;52.696;6.186;2024-01-07T00:52:06;15.23;;;10.07;;
52542;SDS011;38449;52.696;6.186;2024-01-07T00:54:32;14.13;;;10.25;;
52542;SDS011;38449;52.696;6.186;2024-01-07T00:59:34;17.67;;;10.75;;
52542;SDS011;38449;52.696;6.186;2024-01-07T01:02:01;15.48;;;10.38;;
52542;SDS011;38449;52.696;6.186;2024-01-07T01:06:53;14.23;;;9.30;;
52542;SDS011;38449;52.696;6.186;2024-01-07T01:09:21;15.20;;;10.30;;
52542;SDS011;38449;52.696;6.186;2024-01-07T01:11:47;15.32;;;10.48;;
52542;SDS011;38449;52.696;6.186;2024-01-07T01:14:15;15.93;;;11.07;;
52542;SDS011;38449;52.696;6.186;2024-01-07T01:16:42;15.85;;;10.85;;
52542;SDS011;38449;52.696;6.186;2024-01-07T01:19:09;14.68;;;10.75;;
52542;SDS011;38449;52.696;6.186;2024-01-07T01:21:35;15.90;;;11.32;;
52542;SDS011;38449;52.696;6.186;2024-01-07T01:24:02;16.52;;;11.00;;
52542;SDS011;38449;52.696;6.186;2024-01-07T01:26:28;18.42;;;11.38;;
52542;SDS011;38449;52.696;6.186;2024-01-07T01:28:55;15.27;;;10.82;;
52542;SDS011;38449;52.696;6.186;2024-01-07T01:33:47;13.52;;;8.95;;
52542;SDS011;38449;52.696;6.186;2024-01-07T01:36:15;13.68;;;10.25;;
52542;SDS011;38449;52.696;6.186;2024-01-07T01:41:07;13.57;;;9.05;;
52542;SDS011;38449;52.696;6.186;2024-01-07T01:43:34;13.10;;;9.13;;
52542;SDS011;38449;52.696;6.186;2024-01-07T01:48:28;13.55;;;9.23;;
52542;SDS011;38449;52.696;6.186;2024-01-07T01:50:54;13.88;;;8.93;;
52542;SDS011;38449;52.696;6.186;2024-01-07T01:53:26;15.73;;;8.85;;
52542;SDS011;38449;52.696;6.186;2024-01-07T01:55:53;16.20;;;9.23;;
52542;SDS011;38449;52.696;6.186;2024-01-07T01:58:23;13.40;;;9.80;;
52542;SDS011;38449;52.696;6.186;2024-01-07T02:00:49;17.13;;;10.63;;
52542;SDS011;38449;52.696;6.186;2024-01-07T02:03:17;15.23;;;9.75;;
52542;SDS011;38449;52.696;6.186;2024-01-07T02:05:44;13.75;;;8.80;;
52542;SDS011;38449;52.696;6.186;2024-01-07T02:08:10;15.73;;;9.45;;
52542;SDS011;38449;52.696;6.186;2024-01-07T02:10:37;14.63;;;9.73;;
52542;SDS011;38449;52.696;6.186;2024-01-07T02:13:03;14.38;;;10.10;;
52542;SDS011;38449;52.696;6.186;2024-01-07T02:15:30;15.82;;;9.65;;
52542;SDS011;38449;52.696;6.186;2024-01-07T02:17:57;14.63;;;10.55;;
52542;SDS011;38449;52.696;6.186;2024-01-07T02:20:23;14.00;;;10.25;;
52542;SDS011;38449;52.696;6.186;2024-01-07T02:22:55;14.63;;;10.35;;
52542;SDS011;38449;52.696;6.186;2024-01-07T02:25:23;14.30;;;10.38;;
52542;SDS011;38449;52.696;6.186;2024-01-07T02:27:49;15.00;;;9.75;;
52542;SDS011;38449;52.696;6.186;2024-01-07T02:32:43;14.43;;;10.00;;
52542;SDS011;38449;52.696;6.186;2024-01-07T02:37:35;13.57;;;10.00;;
52542;SDS011;38449;52.696;6.186;2024-01-07T02:40:02;14.80;;;10.25;;
52542;SDS011;38449;52.696;6.186;2024-01-07T02:42:28;14.88;;;9.65;;
52542;SDS011;38449;52.696;6.186;2024-01-07T02:44:54;14.27;;;9.88;;
52542;SDS011;38449;52.696;6.186;2024-01-07T02:49:47;15.00;;;9.63;;
52542;SDS011;38449;52.696;6.186;2024-01-07T02:52:15;13.40;;;9.15;;
52542;SDS011;38449;52.696;6.186;2024-01-07T02:54:41;14.45;;;10.07;;
52542;SDS011;38449;52.696;6.186;2024-01-07T02:57:08;14.65;;;9.57;;
52542;SDS011;38449;52.696;6.186;2024-01-07T02:59:35;13.20;;;9.45;;
52542;SDS011;38449;52.696;6.186;2024-01-07T03:02:01;13.52;;;9.48;;
52542;SDS011;38449;52.696;6.186;2024-01-07T03:04:28;13.90;;;9.40;;
52542;SDS011;38449;52.696;6.186;2024-01-07T03:09:20;13.57;;;9.88;;
52542;SDS011;38449;52.696;6.186;2024-01-07T03:11:47;13.10;;;8.98;;
52542;SDS011;38449;52.696;6.186;2024-01-07T03:14:15;13.57;;;9.38;;
52542;SDS011;38449;52.696;6.186;2024-01-07T03:16:43;14.07;;;8.82;;
52542;SDS011;38449;52.696;6.186;2024-01-07T03:19:10;14.27;;;10.30;;
52542;SDS011;38449;52.696;6.186;2024-01-07T03:21:36;13.48;;;9.77;;
52542;SDS011;38449;52.696;6.186;2024-01-07T03:24:04;15.70;;;9.25;;
52542;SDS011;38449;52.696;6.186;2024-01-07T03:26:32;13.85;;;9.43;;
52542;SDS011;38449;52.696;6.186;2024-01-07T03:28:58;13.80;;;9.25;;
52542;SDS011;38449;52.696;6.186;2024-01-07T03:31:27;12.35;;;8.63;;
52542;SDS011;38449;52.696;6.186;2024-01-07T03:33:53;11.57;;;9.02;;
52542;SDS011;38449;52.696;6.186;2024-01-07T03:36:20;14.13;;;9.23;;
52542;SDS011;38449;52.696;6.186;2024-01-07T03:38:46;13.02;;;8.82;;
52542;SDS011;38449;52.696;6.186;2024-01-07T03:41:19;12.32;;;8.85;;
52542;SDS011;38449;52.696;6.186;2024-01-07T03:43:46;12.10;;;8.77;;
52542;SDS011;38449;52.696;6.186;2024-01-07T03:46:13;11.80;;;8.27;;
52542;SDS011;38449;52.696;6.186;2024-01-07T03:48:41;12.85;;;9.63;;
52542;SDS011;38449;52.696;6.186;2024-01-07T03:51:07;11.70;;;8.43;;
52542;SDS011;38449;52.696;6.186;2024-01-07T03:53:35;13.50;;;9.82;;
52542;SDS011;38449;52.696;6.186;2024-01-07T03:56:01;12.43;;;9.90;;
52542;SDS011;38449;52.696;6.186;2024-01-07T03:58:27;11.48;;;8.23;;
52542;SDS011;38449;52.696;6.186;2024-01-07T04:00:54;12.23;;;9.00;;
52542;SDS011;38449;52.696;6.186;2024-01-07T04:03:21;12.50;;;9.02;;
52542;SDS011;38449;52.696;6.186;2024-01-07T04:08:14;13.43;;;8.70;;
52542;SDS011;38449;52.696;6.186;2024-01-07T04:10:41;12.02;;;7.95;;
52542;SDS011;38449;52.696;6.186;2024-01-07T04:13:09;10.30;;;7.30;;
52542;SDS011;38449;52.696;6.186;2024-01-07T04:15:35;10.63;;;8.18;;
52542;SDS011;38449;52.696;6.186;2024-01-07T04:18:02;11.27;;;8.00;;
52542;SDS011;38449;52.696;6.186;2024-01-07T04:20:29;11.02;;;8.40;;
52542;SDS011;38449;52.696;6.186;2024-01-07T04:22:57;9.75;;;7.28;;
52542;SDS011;38449;52.696;6.186;2024-01-07T04:25:23;11.32;;;7.65;;
52542;SDS011;38449;52.696;6.186;2024-01-07T04:27:51;11.23;;;8.73;;
52542;SDS011;38449;52.696;6.186;2024-01-07T04:30:17;11.90;;;8.82;;
52542;SDS011;38449;52.696;6.186;2024-01-07T04:32:44;11.93;;;8.52;;
52542;SDS011;38449;52.696;6.186;2024-01-07T04:37:37;12.15;;;8.52;;
52542;SDS011;38449;52.696;6.186;2024-01-07T04:40:03;12.30;;;7.78;;
52542;SDS011;38449;52.696;6.186;2024-01-07T04:42:31;12.23;;;8.02;;
52542;SDS011;38449;52.696;6.186;2024-01-07T04:44:57;12.90;;;7.82;;
52542;SDS011;38449;52.696;6.186;2024-01-07T04:47:30;12.27;;;7.03;;
52542;SDS011;38449;52.696;6.186;2024-01-07T04:49:59;10.30;;;8.00;;
52542;SDS011;38449;52.696;6.186;2024-01-07T04:52:26;10.40;;;7.32;;
52542;SDS011;38449;52.696;6.186;2024-01-07T04:54:52;10.90;;;7.40;;
52542;SDS011;38449;52.696;6.186;2024-01-07T04:57:20;9.55;;;7.45;;
52542;SDS011;38449;52.696;6.186;2024-01-07T04:59:48;8.93;;;7.20;;
52542;SDS011;38449;52.696;6.186;2024-01-07T05:02:15;10.32;;;7.72;;
52542;SDS011;38449;52.696;6.186;2024-01-07T05:04:42;11.10;;;8.23;;
52542;SDS011;38449;52.696;6.186;2024-01-07T05:07:09;9.38;;;6.88;;
52542;SDS011;38449;52.696;6.186;2024-01-07T05:09:35;10.48;;;7.70;;
52542;SDS011;38449;52.696;6.186;2024-01-07T05:14:29;10.52;;;6.88;;
52542;SDS011;38449;52.696;6.186;2024-01-07T05:19:22;10.43;;;7.15;;
52542;SDS011;38449;52.696;6.186;2024-01-07T05:21:50;9.75;;;6.25;;
52542;SDS011;38449;52.696;6.186;2024-01-07T05:24:16;10.40;;;7.25;;
52542;SDS011;38449;52.696;6.186;2024-01-07T05:29:11;11.50;;;6.82;;
52542;SDS011;38449;52.696;6.186;2024-01-07T05:31:39;10.77;;;6.80;;
52542;SDS011;38449;52.696;6.186;2024-01-07T05:34:06;9.95;;;6.75;;
52542;SDS011;38449;52.696;6.186;2024-01-07T05:36:32;10.57;;;6.93;;
52542;SDS011;38449;52.696;6.186;2024-01-07T05:41:25;10.30;;;6.68;;
52542;SDS011;38449;52.696;6.186;2024-01-07T05:43:51;8.60;;;6.22;;
52542;SDS011;38449;52.696;6.186;2024-01-07T05:48:49;11.63;;;6.05;;
52542;SDS011;38449;52.696;6.186;2024-01-07T05:51:16;8.77;;;6.32;;
52542;SDS011;38449;52.696;6.186;2024-01-07T05:53:44;9.75;;;6.07;;
52542;SDS011;38449;52.696;6.186;2024-01-07T05:56:11;7.35;;;5.07;;
52542;SDS011;38449;52.696;6.186;2024-01-07T05:58:38;8.45;;;5.90;;
52542;SDS011;38449;52.696;6.186;2024-01-07T06:01:04;7.40;;;5.00;;
52542;SDS011;38449;52.696;6.186;2024-01-07T06:03:33;6.10;;;5.05;;
52542;SDS011;38449;52.696;6.186;2024-01-07T06:06:01;7.75;;;5.32;;
52542;SDS011;38449;52.696;6.186;2024-01-07T06:08:28;7.95;;;5.85;;
52542;SDS011;38449;52.696;6.186;2024-01-07T06:10:54;7.55;;;5.45;;
52542;SDS011;38449;52.696;6.186;2024-01-07T06:13:21;8.93;;;5.63;;
52542;SDS011;38449;52.696;6.186;2024-01-07T06:15:47;7.10;;;5.40;;
52542;SDS011;38449;52.696;6.186;2024-01-07T06:20:39;5.68;;;4.45;;
52542;SDS011;38449;52.696;6.186;2024-01-07T06:23:06;9.65;;;4.80;;
52542;SDS011;38449;52.696;6.186;2024-01-07T06:27:59;6.43;;;4.30;;
52542;SDS011;38449;52.696;6.186;2024-01-07T06:30:27;8.20;;;4.47;;
52542;SDS011;38449;52.696;6.186;2024-01-07T06:32:53;6.85;;;4.32;;
52542;SDS011;38449;52.696;6.186;2024-01-07T06:37:46;5.38;;;3.67;;
52542;SDS011;38449;52.696;6.186;2024-01-07T06:42:38;5.38;;;3.88;;
52542;SDS011;38449;52.696;6.186;2024-01-07T06:45:05;5.65;;;3.65;;
52542;SDS011;38449;52.696;6.186;2024-01-07T06:47:31;5.88;;;4.50;;
52542;SDS011;38449;52.696;6.186;2024-01-07T06:49:58;5.90;;;3.75;;
52542;SDS011;38449;52.696;6.186;2024-01-07T06:54:52;5.25;;;3.40;;
52542;SDS011;38449;52.696;6.186;2024-01-07T06:59:44;5.18;;;3.80;;
52542;SDS011;38449;52.696;6.186;2024-01-07T07:04:37;4.45;;;3.38;;
52542;SDS011;38449;52.696;6.186;2024-01-07T07:09:30;4.60;;;3.17;;
52542;SDS011;38449;52.696;6.186;2024-01-07T07:14:22;5.57;;;3.63;;
52542;SDS011;38449;52.696;6.186;2024-01-07T07:19:15;6.07;;;3.33;;
52542;SDS011;38449;52.696;6.186;2024-01-07T07:21:44;3.85;;;2.85;;
52542;SDS011;38449;52.696;6.186;2024-01-07T07:24:10;6.40;;;3.75;;
52542;SDS011;38449;52.696;6.186;2024-01-07T07:26:36;5.15;;;3.13;;
52542;SDS011;38449;52.696;6.186;2024-01-07T07:29:07;4.85;;;2.97;;
52542;SDS011;38449;52.696;6.186;2024-01-07T07:31:36;4.70;;;2.88;;
52542;SDS011;38449;52.696;6.186;2024-01-07T07:34:03;3.83;;;3.40;;
52542;SDS011;38449;52.696;6.186;2024-01-07T07:36:30;7.43;;;4.03;;
52542;SDS011;38449;52.696;6.186;2024-01-07T07:38:58;4.45;;;3.10;;
52542;SDS011;38449;52.696;6.186;2024-01-07T07:41:24;4.15;;;3.28;;
52542;SDS011;38449;52.696;6.186;2024-01-07T07:46:17;5.20;;;2.60;;
52542;SDS011;38449;52.696;6.186;2024-01-07T07:51:09;3.30;;;2.60;;
52542;SDS011;38449;52.696;6.186;2024-01-07T07:53:37;4.15;;;3.15;;
52542;SDS011;38449;52.696;6.186;2024-01-07T07:56:05;4.50;;;2.70;;
52542;SDS011;38449;52.696;6.186;2024-01-07T07:58:32;4.85;;;3.03;;
52542;SDS011;38449;52.696;6.186;2024-01-07T08:03:25;4.20;;;2.90;;
52542;SDS011;38449;52.696;6.186;2024-01-07T08:05:52;5.18;;;2.85;;
52542;SDS011;38449;52.696;6.186;2024-01-07T08:08:20;4.45;;;3.13;;
52542;SDS011;38449;52.696;6.186;2024-01-07T08:10:46;4.15;;;2.90;;
52542;SDS011;38449;52.696;6.186;2024-01-07T08:13:12;5.97;;;2.97;;
52542;SDS011;38449;52.696;6.186;2024-01-07T08:15:39;4.35;;;3.20;;
52542;SDS011;38449;52.696;6.186;2024-01-07T08:20:32;6.60;;;3.03;;
52542;SDS011;38449;52.696;6.186;2024-01-07T08:22:58;4.80;;;2.97;;
52542;SDS011;38449;52.696;6.186;2024-01-07T08:25:25;3.65;;;2.70;;
52542;SDS011;38449;52.696;6.186;2024-01-07T08:30:18;4.32;;;3.22;;
52542;SDS011;38449;52.696;6.186;2024-01-07T08:32:44;3.65;;;2.97;;
52542;SDS011;38449;52.696;6.186;2024-01-07T08:35:14;3.65;;;2.70;;
52542;SDS011;38449;52.696;6.186;2024-01-07T08:37:41;9.23;;;4.05;;
52542;SDS011;38449;52.696;6.186;2024-01-07T08:42:35;3.75;;;2.92;;
52542;SDS011;38449;52.696;6.186;2024-01-07T08:45:02;3.42;;;2.58;;
52542;SDS011;38449;52.696;6.186;2024-01-07T08:47:30;3.40;;;2.45;;
52542;SDS011;38449;52.696;6.186;2024-01-07T08:49:57;4.95;;;2.55;;
52542;SDS011;38449;52.696;6.186;2024-01-07T08:52:26;3.35;;;2.47;;
52542;SDS011;38449;52.696;6.186;2024-01-07T08:54:52;3.70;;;2.30;;
52542;SDS011;38449;52.696;6.186;2024-01-07T08:59:45;5.18;;;2.50;;
52542;SDS011;38449;52.696;6.186;2024-01-07T09:04:37;4.05;;;2.50;;
52542;SDS011;38449;52.696;6.186;2024-01-07T09:09:30;4.35;;;2.55;;
52542;SDS011;38449;52.696;6.186;2024-01-07T09:14:24;3.40;;;2.50;;
52542;SDS011;38449;52.696;6.186;2024-01-07T09:16:51;4.22;;;2.72;;
52542;SDS011;38449;52.696;6.186;2024-01-07T09:19:17;3.47;;;2.50;;
52542;SDS011;38449;52.696;6.186;2024-01-07T09:24:10;4.38;;;2.60;;
52542;SDS011;38449;52.696;6.186;2024-01-07T09:26:36;4.47;;;3.15;;
52542;SDS011;38449;52.696;6.186;2024-01-07T09:29:03;3.88;;;2.42;;
52542;SDS011;38449;52.696;6.186;2024-01-07T09:33:55;3.53;;;2.58;;
52542;SDS011;38449;52.696;6.186;2024-01-07T09:38:48;2.80;;;2.10;;
52542;SDS011;38449;52.696;6.186;2024-01-07T09:43:40;4.68;;;2.42;;
52542;SDS011;38449;52.696;6.186;2024-01-07T09:46:07;4.40;;;2.60;;
52542;SDS011;38449;52.696;6.186;2024-01-07T09:48:33;3.60;;;2.55;;
52542;SDS011;38449;52.696;6.186;2024-01-07T09:51:01;2.95;;;2.22;;
52542;SDS011;38449;52.696;6.186;2024-01-07T09:53:30;3.08;;;2.42;;
52542;SDS011;38449;52.696;6.186;2024-01-07T10:01:11;4.10;;;2.15;;
52542;SDS011;38449;52.696;6.186;2024-01-07T10:03:37;3.13;;;2.42;;
52542;SDS011;38449;52.696;6.186;2024-01-07T10:06:04;3.97;;;2.42;;
52542;SDS011;38449;52.696;6.186;2024-01-07T10:08:31;2.75;;;2.20;;
52542;SDS011;38449;52.696;6.186;2024-01-07T10:10:58;3.63;;;2.50;;
52542;SDS011;38449;52.696;6.186;2024-01-07T10:15:50;4.18;;;2.42;;
52542;SDS011;38449;52.696;6.186;2024-01-07T10:18:18;3.15;;;2.05;;
52542;SDS011;38449;52.696;6.186;2024-01-07T10:20:44;7.93;;;2.55;;
52542;SDS011;38449;52.696;6.186;2024-01-07T10:23:11;3.55;;;2.20;;
52542;SDS011;38449;52.696;6.186;2024-01-07T10:25:37;2.85;;;2.08;;
52542;SDS011;38449;52.696;6.186;2024-01-07T10:30:30;3.47;;;2.38;;
52542;SDS011;38449;52.696;6.186;2024-01-07T10:32:57;3.63;;;2.25;;
52542;SDS011;38449;52.696;6.186;2024-01-07T10:35:27;5.38;;;2.28;;
52542;SDS011;38449;52.696;6.186;2024-01-07T10:38:03;3.33;;;2.42;;
52542;SDS011;38449;52.696;6.186;2024-01-07T10:40:30;2.95;;;2.20;;
52542;SDS011;38449;52.696;6.186;2024-01-07T10:42:59;4.03;;;2.13;;
52542;SDS011;38449;52.696;6.186;2024-01-07T10:45:25;3.35;;;1.90;;
52542;SDS011;38449;52.696;6.186;2024-01-07T10:47:54;2.50;;;1.63;;
52542;SDS011;38449;52.696;6.186;2024-01-07T10:50:21;3.75;;;2.00;;
52542;SDS011;38449;52.696;6.186;2024-01-07T10:52:49;3.30;;;2.10;;
52542;SDS011;38449;52.696;6.186;2024-01-07T10:55:17;2.95;;;1.90;;
52542;SDS011;38449;52.696;6.186;2024-01-07T10:57:47;3.28;;;2.20;;
52542;SDS011;38449;52.696;6.186;2024-01-07T11:00:15;3.33;;;2.17;;
52542;SDS011;38449;52.696;6.186;2024-01-07T11:05:26;4.05;;;2.42;;
52542;SDS011;38449;52.696;6.186;2024-01-07T11:11:03;4.18;;;2.42;;
52542;SDS011;38449;52.696;6.186;2024-01-07T11:13:36;3.05;;;1.92;;
52542;SDS011;38449;52.696;6.186;2024-01-07T11:16:04;4.53;;;1.92;;
52542;SDS011;38449;52.696;6.186;2024-01-07T11:18:37;2.42;;;1.80;;
52542;SDS011;38449;52.696;6.186;2024-01-07T11:21:20;3.40;;;1.92;;
52542;SDS011;38449;52.696;6.186;2024-01-07T11:23:47;3.08;;;1.70;;
52542;SDS011;38449;52.696;6.186;2024-01-07T11:26:14;2.95;;;1.65;;
52542;SDS011;38449;52.696;6.186;2024-01-07T11:28:53;2.92;;;1.95;;
52542;SDS011;38449;52.696;6.186;2024-01-07T11:34:05;3.10;;;1.88;;
52542;SDS011;38449;52.696;6.186;2024-01-07T11:36:32;4.03;;;2.38;;
52542;SDS011;38449;52.696;6.186;2024-01-07T11:39:02;3.25;;;2.25;;
52542;SDS011;38449;52.696;6.186;2024-01-07T11:41:31;4.20;;;2.25;;
52542;SDS011;38449;52.696;6.186;2024-01-07T11:44:01;2.80;;;1.83;;
52542;SDS011;38449;52.696;6.186;2024-01-07T11:46:28;3.55;;;1.90;;
52542;SDS011;38449;52.696;6.186;2024-01-07T11:48:59;3.97;;;2.00;;
52542;SDS011;38449;52.696;6.186;2024-01-07T11:51:26;4.22;;;2.17;;
52542;SDS011;38449;52.696;6.186;2024-01-07T11:53:53;5.00;;;2.65;;
52542;SDS011;38449;52.696;6.186;2024-01-07T11:56:20;3.25;;;2.00;;
52542;SDS011;38449;52.696;6.186;2024-01-07T11:58:46;3.15;;;2.08;;
52542;SDS011;38449;52.696;6.186;2024-01-07T12:03:45;3.90;;;2.20;;
52542;SDS011;38449;52.696;6.186;2024-01-07T12:06:13;5.22;;;2.40;;
52542;SDS011;38449;52.696;6.186;2024-01-07T12:08:40;5.93;;;2.92;;
52542;SDS011;38449;52.696;6.186;2024-01-07T12:11:07;4.03;;;2.25;;
52542;SDS011;38449;52.696;6.186;2024-01-07T12:13:34;4.28;;;2.08;;
52542;SDS011;38449;52.696;6.186;2024-01-07T12:16:01;7.30;;;3.65;;
52542;SDS011;38449;52.696;6.186;2024-01-07T12:18:29;5.80;;;2.35;;
52542;SDS011;38449;52.696;6.186;2024-01-07T12:23:24;3.58;;;2.08;;
52542;SDS011;38449;52.696;6.186;2024-01-07T12:25:52;3.30;;;2.05;;
52542;SDS011;38449;52.696;6.186;2024-01-07T12:28:18;3.85;;;2.10;;
52542;SDS011;38449;52.696;6.186;2024-01-07T12:30:47;3.55;;;2.67;;
52542;SDS011;38449;52.696;6.186;2024-01-07T12:33:16;5.35;;;2.85;;
52542;SDS011;38449;52.696;6.186;2024-01-07T12:35:47;3.50;;;2.03;;
52542;SDS011;38449;52.696;6.186;2024-01-07T12:38:14;3.65;;;2.10;;
52542;SDS011;38449;52.696;6.186;2024-01-07T12:40:40;4.32;;;2.28;;
52542;SDS011;38449;52.696;6.186;2024-01-07T12:43:08;3.38;;;1.90;;
52542;SDS011;38449;52.696;6.186;2024-01-07T12:45:36;3.33;;;2.33;;
52542;SDS011;38449;52.696;6.186;2024-01-07T12:48:02;3.95;;;3.05;;
52542;SDS011;38449;52.696;6.186;2024-01-07T12:50:29;2.95;;;2.20;;
52542;SDS011;38449;52.696;6.186;2024-01-07T12:52:57;3.22;;;2.30;;
52542;SDS011;38449;52.696;6.186;2024-01-07T12:55:24;3.28;;;2.70;;
52542;SDS011;38449;52.696;6.186;2024-01-07T12:57:51;2.90;;;2.20;;
52542;SDS011;38449;52.696;6.186;2024-01-07T13:00:17;3.13;;;1.80;;
52542;SDS011;38449;52.696;6.186;2024-01-07T13:02:44;3.60;;;2.05;;
52542;SDS011;38449;52.696;6.186;2024-01-07T13:05:10;3.65;;;1.95;;
52542;SDS011;38449;52.696;6.186;2024-01-07T13:10:03;4.28;;;2.65;;
52542;SDS011;38449;52.696;6.186;2024-01-07T13:12:30;3.72;;;2.78;;
52542;SDS011;38449;52.696;6.186;2024-01-07T13:14:56;4.63;;;2.40;;
52542;SDS011;38449;52.696;6.186;2024-01-07T13:17:22;3.95;;;2.55;;
52542;SDS011;38449;52.696;6.186;2024-01-07T13:19:49;4.13;;;2.40;;
52542;SDS011;38449;52.696;6.186;2024-01-07T13:24:41;4.45;;;2.33;;
52542;SDS011;38449;52.696;6.186;2024-01-07T13:27:08;5.38;;;2.40;;
52542;SDS011;38449;52.696;6.186;2024-01-07T13:29:34;3.53;;;2.70;;
52542;SDS011;38449;52.696;6.186;2024-01-07T13:32:00;3.22;;;2.25;;
52542;SDS011;38449;52.696;6.186;2024-01-07T13:34:27;3.97;;;3.13;;
52542;SDS011;38449;52.696;6.186;2024-01-07T13:39:21;3.50;;;2.30;;
52542;SDS011;38449;52.696;6.186;2024-01-07T13:41:47;4.85;;;2.70;;
52542;SDS011;38449;52.696;6.186;2024-01-07T13:44:14;5.07;;;3.08;;
52542;SDS011;38449;52.696;6.186;2024-01-07T13:46:44;4.38;;;3.13;;
52542;SDS011;38449;52.696;6.186;2024-01-07T13:49:14;4.43;;;2.45;;
52542;SDS011;38449;52.696;6.186;2024-01-07T13:51:41;5.15;;;2.92;;
52542;SDS011;38449;52.696;6.186;2024-01-07T13:54:08;5.22;;;3.03;;
52542;SDS011;38449;52.696;6.186;2024-01-07T13:56:39;4.75;;;3.20;;
52542;SDS011;38449;52.696;6.186;2024-01-07T13:59:08;4.55;;;2.92;;
52542;SDS011;38449;52.696;6.186;2024-01-07T14:01:37;4.45;;;2.83;;
52542;SDS011;38449;52.696;6.186;2024-01-07T14:04:05;4.28;;;3.13;;
52542;SDS011;38449;52.696;6.186;2024-01-07T14:06:31;5.70;;;2.85;;
52542;SDS011;38449;52.696;6.186;2024-01-07T14:08:58;4.53;;;2.88;;
52542;SDS011;38449;52.696;6.186;2024-01-07T14:11:26;4.28;;;2.55;;
52542;SDS011;38449;52.696;6.186;2024-01-07T14:13:53;4.97;;;3.05;;
52542;SDS011;38449;52.696;6.186;2024-01-07T14:18:47;4.53;;;2.90;;
52542;SDS011;38449;52.696;6.186;2024-01-07T14:21:14;6.75;;;3.30;;
52542;SDS011;38449;52.696;6.186;2024-01-07T14:23:40;4.97;;;3.72;;
52542;SDS011;38449;52.696;6.186;2024-01-07T14:26:10;7.55;;;3.67;;
52542;SDS011;38449;52.696;6.186;2024-01-07T14:28:36;7.15;;;3.97;;
52542;SDS011;38449;52.696;6.186;2024-01-07T14:31:02;8.13;;;3.72;;
52542;SDS011;38449;52.696;6.186;2024-01-07T14:33:29;7.22;;;4.50;;
52542;SDS011;38449;52.696;6.186;2024-01-07T14:35:55;7.07;;;3.67;;
52542;SDS011;38449;52.696;6.186;2024-01-07T14:38:21;5.93;;;3.55;;
52542;SDS011;38449;52.696;6.186;2024-01-07T14:40:49;9.32;;;5.45;;
52542;SDS011;38449;52.696;6.186;2024-01-07T14:43:18;9.07;;;4.63;;
52542;SDS011;38449;52.696;6.186;2024-01-07T14:45:44;6.80;;;4.45;;
52542;SDS011;38449;52.696;6.186;2024-01-07T14:48:19;10.38;;;5.13;;
52542;SDS011;38449;52.696;6.186;2024-01-07T14:50:47;7.95;;;3.90;;
52542;SDS011;38449;52.696;6.186;2024-01-07T14:53:14;7.75;;;4.50;;
52542;SDS011;38449;52.696;6.186;2024-01-07T14:55:40;6.32;;;4.93;;
52542;SDS011;38449;52.696;6.186;2024-01-07T14:58:07;7.85;;;4.78;;
52542;SDS011;38449;52.696;6.186;2024-01-07T15:00:34;6.03;;;4.05;;
52542;SDS011;38449;52.696;6.186;2024-01-07T15:03:00;6.97;;;4.13;;
52542;SDS011;38449;52.696;6.186;2024-01-07T15:05:26;5.95;;;4.10;;
52542;SDS011;38449;52.696;6.186;2024-01-07T15:07:53;6.07;;;4.15;;
52542;SDS011;38449;52.696;6.186;2024-01-07T15:10:19;6.60;;;3.78;;
52542;SDS011;38449;52.696;6.186;2024-01-07T15:12:45;8.52;;;4.93;;
52542;SDS011;38449;52.696;6.186;2024-01-07T15:15:14;7.03;;;4.32;;
52542;SDS011;38449;52.696;6.186;2024-01-07T15:17:41;6.82;;;4.28;;
52542;SDS011;38449;52.696;6.186;2024-01-07T15:20:08;5.50;;;4.57;;
52542;SDS011;38449;52.696;6.186;2024-01-07T15:22:36;6.75;;;3.90;;
52542;SDS011;38449;52.696;6.186;2024-01-07T15:25:03;6.93;;;4.07;;
52542;SDS011;38449;52.696;6.186;2024-01-07T15:27:30;5.78;;;4.22;;
52542;SDS011;38449;52.696;6.186;2024-01-07T15:29:57;6.70;;;3.85;;
52542;SDS011;38449;52.696;6.186;2024-01-07T15:34:52;8.93;;;4.10;;
52542;SDS011;38449;52.696;6.186;2024-01-07T15:37:19;6.47;;;4.53;;
52542;SDS011;38449;52.696;6.186;2024-01-07T15:39:45;5.30;;;3.50;;
52542;SDS011;38449;52.696;6.186;2024-01-07T15:44:39;7.63;;;5.00;;
52542;SDS011;38449;52.696;6.186;2024-01-07T15:47:07;8.02;;;5.05;;
52542;SDS011;38449;52.696;6.186;2024-01-07T15:49:34;5.97;;;4.25;;
52542;SDS011;38449;52.696;6.186;2024-01-07T15:52:03;8.20;;;5.03;;
52542;SDS011;38449;52.696;6.186;2024-01-07T15:54:30;7.10;;;4.32;;
52542;SDS011;38449;52.696;6.186;2024-01-07T15:56:57;7.15;;;4.82;;
52542;SDS011;38449;52.696;6.186;2024-01-07T15:59:24;10.88;;;6.38;;
52542;SDS011;38449;52.696;6.186;2024-01-07T16:01:50;7.40;;;4.13;;
52542;SDS011;38449;52.696;6.186;2024-01-07T16:06:44;10.25;;;4.75;;
52542;SDS011;38449;52.696;6.186;2024-01-07T16:09:11;6.45;;;4.80;;
52542;SDS011;38449;52.696;6.186;2024-01-07T16:11:38;6.30;;;4.25;;
52542;SDS011;38449;52.696;6.186;2024-01-07T16:14:05;5.90;;;4.60;;
52542;SDS011;38449;52.696;6.186;2024-01-07T16:16:31;6.15;;;4.53;;
52542;SDS011;38449;52.696;6.186;2024-01-07T16:18:58;7.20;;;4.65;;
52542;SDS011;38449;52.696;6.186;2024-01-07T16:21:25;6.97;;;4.45;;
52542;SDS011;38449;52.696;6.186;2024-01-07T16:23:51;10.27;;;5.47;;
52542;SDS011;38449;52.696;6.186;2024-01-07T16:26:17;6.65;;;4.55;;
52542;SDS011;38449;52.696;6.186;2024-01-07T16:28:44;10.13;;;5.55;;
52542;SDS011;38449;52.696;6.186;2024-01-07T16:31:10;7.65;;;5.03;;
52542;SDS011;38449;52.696;6.186;2024-01-07T16:33:39;7.95;;;4.30;;
52542;SDS011;38449;52.696;6.186;2024-01-07T16:36:07;7.28;;;5.70;;
52542;SDS011;38449;52.696;6.186;2024-01-07T16:38:33;7.93;;;4.30;;
52542;SDS011;38449;52.696;6.186;2024-01-07T16:41:06;8.02;;;4.25;;
52542;SDS011;38449;52.696;6.186;2024-01-07T16:43:34;7.95;;;4.38;;
52542;SDS011;38449;52.696;6.186;2024-01-07T16:46:01;7.53;;;4.85;;
52542;SDS011;38449;52.696;6.186;2024-01-07T16:48:28;6.72;;;4.68;;
52542;SDS011;38449;52.696;6.186;2024-01-07T16:50:55;9.10;;;4.90;;
52542;SDS011;38449;52.696;6.186;2024-01-07T16:53:21;8.88;;;5.20;;
52542;SDS011;38449;52.696;6.186;2024-01-07T16:55:47;7.60;;;4.43;;
52542;SDS011;38449;52.696;6.186;2024-01-07T16:58:17;5.47;;;4.00;;
52542;SDS011;38449;52.696;6.186;2024-01-07T17:00:44;9.35;;;4.97;;
52542;SDS011;38449;52.696;6.186;2024-01-07T17:05:36;7.22;;;4.65;;
52542;SDS011;38449;52.696;6.186;2024-01-07T17:10:29;11.00;;;5.50;;
52542;SDS011;38449;52.696;6.186;2024-01-07T17:15:21;11.15;;;4.57;;